sensor_id;sensor_type;location;lat;lon;timestamp;temperature;humidity
18126;DHT22;53956;52.442;13.284;2022-07-12T00:02:16;20.20;73.20
18126;DHT22;53956;52.442;13.284;2022-07-12T00:04:43;20.20;72.70
18126;DHT22;53956;52.442;13.284;2022-07-12T00:07:10;20.10;73.40
18126;DHT22;53956;52.442;13.284;2022-07-12T00:09:36;20.00;74.30
18126;DHT22;53956;52.442;13.284;2022-07-12T00:12:04;20.00;73.80
18126;DHT22;53956;52.442;13.284;2022-07-12T00:14:31;20.10;74.30
18126;DHT22;53956;52.442;13.284;2022-07-12T00:16:57;20.20;73.80
18126;DHT22;53956;52.442;13.284;2022-07-12T00:19:26;20.20;73.90
18126;DHT22;53956;52.442;13.284;2022-07-12T00:21:53;20.00;74.40
18126;DHT22;53956;52.442;13.284;2022-07-12T00:24:19;20.00;74.00
18126;DHT22;53956;52.442;13.284;2022-07-12T00:26:46;19.90;74.40
18126;DHT22;53956;52.442;13.284;2022-07-12T00:29:13;20.00;75.10
18126;DHT22;53956;52.442;13.284;2022-07-12T00:31:39;19.80;75.10
18126;DHT22;53956;52.442;13.284;2022-07-12T00:34:06;19.80;75.50
18126;DHT22;53956;52.442;13.284;2022-07-12T00:36:34;19.80;75.80
18126;DHT22;53956;52.442;13.284;2022-07-12T00:39:00;19.80;75.50
18126;DHT22;53956;52.442;13.284;2022-07-12T00:41:27;19.70;75.70
18126;DHT22;53956;52.442;13.284;2022-07-12T00:43:53;19.80;75.50
18126;DHT22;53956;52.442;13.284;2022-07-12T00:46:22;19.70;75.20
18126;DHT22;53956;52.442;13.284;2022-07-12T00:48:49;19.60;75.20
18126;DHT22;53956;52.442;13.284;2022-07-12T00:51:16;19.60;75.80
18126;DHT22;53956;52.442;13.284;2022-07-12T00:53:44;19.70;75.30
18126;DHT22;53956;52.442;13.284;2022-07-12T00:56:12;19.60;75.30
18126;DHT22;53956;52.442;13.284;2022-07-12T00:58:39;19.70;75.30
18126;DHT22;53956;52.442;13.284;2022-07-12T01:01:06;19.70;74.70
18126;DHT22;53956;52.442;13.284;2022-07-12T01:03:33;19.60;75.60
18126;DHT22;53956;52.442;13.284;2022-07-12T01:05:59;19.50;76.40
18126;DHT22;53956;52.442;13.284;2022-07-12T01:08:27;19.40;76.40
18126;DHT22;53956;52.442;13.284;2022-07-12T01:10:55;19.50;76.40
18126;DHT22;53956;52.442;13.284;2022-07-12T01:13:22;19.60;76.00
18126;DHT22;53956;52.442;13.284;2022-07-12T01:15:49;19.60;75.90
18126;DHT22;53956;52.442;13.284;2022-07-12T01:18:18;19.40;76.30
18126;DHT22;53956;52.442;13.284;2022-07-12T01:20:45;19.50;76.30
18126;DHT22;53956;52.442;13.284;2022-07-12T01:23:13;19.40;76.70
18126;DHT22;53956;52.442;13.284;2022-07-12T01:25:40;19.30;76.70
18126;DHT22;53956;52.442;13.284;2022-07-12T01:28:07;19.30;76.80
18126;DHT22;53956;52.442;13.284;2022-07-12T01:30:34;19.20;77.20
18126;DHT22;53956;52.442;13.284;2022-07-12T01:33:01;19.20;77.20
18126;DHT22;53956;52.442;13.284;2022-07-12T01:35:28;19.20;77.00
18126;DHT22;53956;52.442;13.284;2022-07-12T01:37:55;19.20;77.20
18126;DHT22;53956;52.442;13.284;2022-07-12T01:40:23;19.30;76.60
18126;DHT22;53956;52.442;13.284;2022-07-12T01:42:51;19.20;76.70
18126;DHT22;53956;52.442;13.284;2022-07-12T01:45:19;19.20;77.10
18126;DHT22;53956;52.442;13.284;2022-07-12T01:47:45;19.10;77.60
18126;DHT22;53956;52.442;13.284;2022-07-12T01:50:12;19.00;77.90
18126;DHT22;53956;52.442;13.284;2022-07-12T01:52:40;19.00;77.70
18126;DHT22;53956;52.442;13.284;2022-07-12T01:55:07;19.00;77.40
18126;DHT22;53956;52.442;13.284;2022-07-12T01:57:37;19.00;77.60
18126;DHT22;53956;52.442;13.284;2022-07-12T02:00:05;19.00;77.50
18126;DHT22;53956;52.442;13.284;2022-07-12T02:02:32;19.00;77.70
18126;DHT22;53956;52.442;13.284;2022-07-12T02:04:59;19.00;78.00
18126;DHT22;53956;52.442;13.284;2022-07-12T02:07:26;19.10;77.40
18126;DHT22;53956;52.442;13.284;2022-07-12T02:09:53;19.00;77.20
18126;DHT22;53956;52.442;13.284;2022-07-12T02:12:20;19.10;77.30
18126;DHT22;53956;52.442;13.284;2022-07-12T02:14:48;19.00;77.50
18126;DHT22;53956;52.442;13.284;2022-07-12T02:17:15;18.90;77.60
18126;DHT22;53956;52.442;13.284;2022-07-12T02:19:42;18.70;78.10
18126;DHT22;53956;52.442;13.284;2022-07-12T02:22:09;18.70;78.40
18126;DHT22;53956;52.442;13.284;2022-07-12T02:24:35;18.80;78.20
18126;DHT22;53956;52.442;13.284;2022-07-12T02:27:02;19.00;78.30
18126;DHT22;53956;52.442;13.284;2022-07-12T02:29:29;19.00;78.80
18126;DHT22;53956;52.442;13.284;2022-07-12T02:31:57;19.00;78.20
18126;DHT22;53956;52.442;13.284;2022-07-12T02:34:24;19.00;78.30
18126;DHT22;53956;52.442;13.284;2022-07-12T02:36:50;19.00;78.30
18126;DHT22;53956;52.442;13.284;2022-07-12T02:39:17;18.90;78.00
18126;DHT22;53956;52.442;13.284;2022-07-12T02:41:43;18.90;78.10
18126;DHT22;53956;52.442;13.284;2022-07-12T02:44:10;18.70;78.20
18126;DHT22;53956;52.442;13.284;2022-07-12T02:46:37;18.80;77.80
18126;DHT22;53956;52.442;13.284;2022-07-12T02:49:08;18.70;78.00
18126;DHT22;53956;52.442;13.284;2022-07-12T02:51:34;18.70;78.40
18126;DHT22;53956;52.442;13.284;2022-07-12T02:54:01;18.70;78.20
18126;DHT22;53956;52.442;13.284;2022-07-12T02:56:28;18.90;78.00
18126;DHT22;53956;52.442;13.284;2022-07-12T02:58:54;19.00;78.10
18126;DHT22;53956;52.442;13.284;2022-07-12T03:01:21;19.00;77.60
18126;DHT22;53956;52.442;13.284;2022-07-12T03:03:47;18.70;77.70
18126;DHT22;53956;52.442;13.284;2022-07-12T03:06:15;18.80;78.10
18126;DHT22;53956;52.442;13.284;2022-07-12T03:08:42;18.90;77.60
18126;DHT22;53956;52.442;13.284;2022-07-12T03:11:09;18.70;78.20
18126;DHT22;53956;52.442;13.284;2022-07-12T03:13:36;18.80;78.20
18126;DHT22;53956;52.442;13.284;2022-07-12T03:16:04;18.80;78.10
18126;DHT22;53956;52.442;13.284;2022-07-12T03:18:32;18.90;78.60
18126;DHT22;53956;52.442;13.284;2022-07-12T03:20:59;18.80;78.10
18126;DHT22;53956;52.442;13.284;2022-07-12T03:23:27;18.70;78.00
18126;DHT22;53956;52.442;13.284;2022-07-12T03:25:53;18.70;78.40
18126;DHT22;53956;52.442;13.284;2022-07-12T03:28:20;18.50;79.20
18126;DHT22;53956;52.442;13.284;2022-07-12T03:30:47;18.50;79.20
18126;DHT22;53956;52.442;13.284;2022-07-12T03:33:14;18.60;79.30
18126;DHT22;53956;52.442;13.284;2022-07-12T03:35:40;18.40;79.60
18126;DHT22;53956;52.442;13.284;2022-07-12T03:38:07;18.50;79.30
18126;DHT22;53956;52.442;13.284;2022-07-12T03:40:35;18.50;79.20
18126;DHT22;53956;52.442;13.284;2022-07-12T03:43:01;18.50;79.50
18126;DHT22;53956;52.442;13.284;2022-07-12T03:45:28;18.70;79.10
18126;DHT22;53956;52.442;13.284;2022-07-12T03:47:55;18.70;78.50
18126;DHT22;53956;52.442;13.284;2022-07-12T03:50:22;18.70;78.40
18126;DHT22;53956;52.442;13.284;2022-07-12T03:52:49;18.80;78.40
18126;DHT22;53956;52.442;13.284;2022-07-12T03:55:16;18.60;78.80
18126;DHT22;53956;52.442;13.284;2022-07-12T03:57:44;18.60;78.40
18126;DHT22;53956;52.442;13.284;2022-07-12T04:00:12;18.50;78.50
18126;DHT22;53956;52.442;13.284;2022-07-12T04:02:39;18.60;78.10
18126;DHT22;53956;52.442;13.284;2022-07-12T04:05:07;18.70;77.50
18126;DHT22;53956;52.442;13.284;2022-07-12T04:07:34;18.50;78.00
18126;DHT22;53956;52.442;13.284;2022-07-12T04:10:01;18.70;78.10
18126;DHT22;53956;52.442;13.284;2022-07-12T04:12:28;18.60;77.50
18126;DHT22;53956;52.442;13.284;2022-07-12T04:14:56;18.70;77.20
18126;DHT22;53956;52.442;13.284;2022-07-12T04:17:23;18.70;77.20
18126;DHT22;53956;52.442;13.284;2022-07-12T04:19:49;18.70;76.80
18126;DHT22;53956;52.442;13.284;2022-07-12T04:22:16;18.80;77.10
18126;DHT22;53956;52.442;13.284;2022-07-12T04:24:43;18.80;77.00
18126;DHT22;53956;52.442;13.284;2022-07-12T04:27:09;18.80;76.50
18126;DHT22;53956;52.442;13.284;2022-07-12T04:29:36;18.80;76.70
18126;DHT22;53956;52.442;13.284;2022-07-12T04:32:04;19.00;76.40
18126;DHT22;53956;52.442;13.284;2022-07-12T04:34:31;19.00;76.20
18126;DHT22;53956;52.442;13.284;2022-07-12T04:36:57;19.10;75.80
18126;DHT22;53956;52.442;13.284;2022-07-12T04:39:24;19.10;75.30
18126;DHT22;53956;52.442;13.284;2022-07-12T04:41:51;19.20;74.80
18126;DHT22;53956;52.442;13.284;2022-07-12T04:44:17;19.40;74.50
18126;DHT22;53956;52.442;13.284;2022-07-12T04:46:44;19.50;74.30
18126;DHT22;53956;52.442;13.284;2022-07-12T04:49:12;19.70;73.70
18126;DHT22;53956;52.442;13.284;2022-07-12T04:51:38;19.80;73.30
18126;DHT22;53956;52.442;13.284;2022-07-12T04:54:05;20.10;71.60
18126;DHT22;53956;52.442;13.284;2022-07-12T04:56:32;21.20;66.50
18126;DHT22;53956;52.442;13.284;2022-07-12T04:58:58;22.10;63.80
18126;DHT22;53956;52.442;13.284;2022-07-12T05:01:25;22.70;62.00
18126;DHT22;53956;52.442;13.284;2022-07-12T05:03:52;23.20;60.90
18126;DHT22;53956;52.442;13.284;2022-07-12T05:06:20;23.60;58.20
18126;DHT22;53956;52.442;13.284;2022-07-12T05:08:48;24.00;57.50
18126;DHT22;53956;52.442;13.284;2022-07-12T05:11:14;24.40;56.30
18126;DHT22;53956;52.442;13.284;2022-07-12T05:13:41;24.60;55.60
18126;DHT22;53956;52.442;13.284;2022-07-12T05:16:08;25.00;54.50
18126;DHT22;53956;52.442;13.284;2022-07-12T05:18:35;25.10;53.90
18126;DHT22;53956;52.442;13.284;2022-07-12T05:21:02;25.40;53.00
18126;DHT22;53956;52.442;13.284;2022-07-12T05:23:30;25.70;52.90
18126;DHT22;53956;52.442;13.284;2022-07-12T05:25:57;25.90;51.20
18126;DHT22;53956;52.442;13.284;2022-07-12T05:28:23;26.10;50.70
18126;DHT22;53956;52.442;13.284;2022-07-12T05:30:50;26.10;50.60
18126;DHT22;53956;52.442;13.284;2022-07-12T05:33:17;26.50;49.40
18126;DHT22;53956;52.442;13.284;2022-07-12T05:35:43;26.60;49.00
18126;DHT22;53956;52.442;13.284;2022-07-12T05:38:10;26.70;48.80
18126;DHT22;53956;52.442;13.284;2022-07-12T05:40:38;27.10;48.80
18126;DHT22;53956;52.442;13.284;2022-07-12T05:43:04;27.20;48.10
18126;DHT22;53956;52.442;13.284;2022-07-12T05:45:31;27.50;47.30
18126;DHT22;53956;52.442;13.284;2022-07-12T05:47:57;27.40;47.40
18126;DHT22;53956;52.442;13.284;2022-07-12T05:50:24;27.70;46.70
18126;DHT22;53956;52.442;13.284;2022-07-12T05:52:51;28.00;46.20
18126;DHT22;53956;52.442;13.284;2022-07-12T05:55:35;28.20;46.00
18126;DHT22;53956;52.442;13.284;2022-07-12T05:58:03;28.50;45.80
18126;DHT22;53956;52.442;13.284;2022-07-12T06:00:30;28.70;45.50
18126;DHT22;53956;52.442;13.284;2022-07-12T06:02:57;28.80;45.00
18126;DHT22;53956;52.442;13.284;2022-07-12T06:05:24;29.00;44.00
18126;DHT22;53956;52.442;13.284;2022-07-12T06:07:50;29.20;42.90
18126;DHT22;53956;52.442;13.284;2022-07-12T06:10:17;29.40;42.40
18126;DHT22;53956;52.442;13.284;2022-07-12T06:12:44;29.80;41.50
18126;DHT22;53956;52.442;13.284;2022-07-12T06:15:12;29.90;41.30
18126;DHT22;53956;52.442;13.284;2022-07-12T06:17:38;30.30;40.70
18126;DHT22;53956;52.442;13.284;2022-07-12T06:20:06;30.80;40.50
18126;DHT22;53956;52.442;13.284;2022-07-12T06:22:32;30.90;39.80
18126;DHT22;53956;52.442;13.284;2022-07-12T06:24:59;31.40;39.10
18126;DHT22;53956;52.442;13.284;2022-07-12T06:27:26;31.80;38.50
18126;DHT22;53956;52.442;13.284;2022-07-12T06:29:53;32.10;37.90
18126;DHT22;53956;52.442;13.284;2022-07-12T06:32:21;32.00;37.40
18126;DHT22;53956;52.442;13.284;2022-07-12T06:34:47;32.50;37.00
18126;DHT22;53956;52.442;13.284;2022-07-12T06:37:14;32.90;36.30
18126;DHT22;53956;52.442;13.284;2022-07-12T06:39:41;33.20;35.80
18126;DHT22;53956;52.442;13.284;2022-07-12T06:42:09;33.70;35.90
18126;DHT22;53956;52.442;13.284;2022-07-12T06:44:38;34.30;34.90
18126;DHT22;53956;52.442;13.284;2022-07-12T06:47:06;34.20;34.30
18126;DHT22;53956;52.442;13.284;2022-07-12T06:49:34;32.40;35.80
18126;DHT22;53956;52.442;13.284;2022-07-12T06:52:00;31.70;37.40
18126;DHT22;53956;52.442;13.284;2022-07-12T06:54:27;31.60;37.30
18126;DHT22;53956;52.442;13.284;2022-07-12T06:56:54;31.40;37.40
18126;DHT22;53956;52.442;13.284;2022-07-12T06:59:20;31.40;37.80
18126;DHT22;53956;52.442;13.284;2022-07-12T07:01:47;31.30;37.50
18126;DHT22;53956;52.442;13.284;2022-07-12T07:04:15;31.30;37.60
18126;DHT22;53956;52.442;13.284;2022-07-12T07:06:43;31.50;37.70
18126;DHT22;53956;52.442;13.284;2022-07-12T07:09:09;31.10;37.60
18126;DHT22;53956;52.442;13.284;2022-07-12T07:11:36;31.30;37.90
18126;DHT22;53956;52.442;13.284;2022-07-12T07:14:03;31.10;37.40
18126;DHT22;53956;52.442;13.284;2022-07-12T07:16:29;31.30;37.10
18126;DHT22;53956;52.442;13.284;2022-07-12T07:18:56;30.70;38.30
18126;DHT22;53956;52.442;13.284;2022-07-12T07:21:23;31.30;37.70
18126;DHT22;53956;52.442;13.284;2022-07-12T07:23:51;31.10;37.40
18126;DHT22;53956;52.442;13.284;2022-07-12T07:26:18;31.20;37.90
18126;DHT22;53956;52.442;13.284;2022-07-12T07:28:44;31.50;37.40
18126;DHT22;53956;52.442;13.284;2022-07-12T07:31:29;31.40;37.30
18126;DHT22;53956;52.442;13.284;2022-07-12T07:33:56;29.70;38.90
18126;DHT22;53956;52.442;13.284;2022-07-12T07:36:23;30.00;38.90
18126;DHT22;53956;52.442;13.284;2022-07-12T07:38:51;29.80;38.30
18126;DHT22;53956;52.442;13.284;2022-07-12T07:41:17;29.60;39.70
18126;DHT22;53956;52.442;13.284;2022-07-12T07:43:44;29.70;39.70
18126;DHT22;53956;52.442;13.284;2022-07-12T07:46:11;30.30;38.50
18126;DHT22;53956;52.442;13.284;2022-07-12T07:48:37;29.70;39.20
18126;DHT22;53956;52.442;13.284;2022-07-12T07:51:04;28.80;40.40
18126;DHT22;53956;52.442;13.284;2022-07-12T07:53:31;28.80;40.50
18126;DHT22;53956;52.442;13.284;2022-07-12T07:55:59;28.40;40.70
18126;DHT22;53956;52.442;13.284;2022-07-12T07:58:26;27.70;42.80
18126;DHT22;53956;52.442;13.284;2022-07-12T08:00:53;27.90;42.50
18126;DHT22;53956;52.442;13.284;2022-07-12T08:03:20;28.50;41.90
18126;DHT22;53956;52.442;13.284;2022-07-12T08:05:47;28.60;41.60
18126;DHT22;53956;52.442;13.284;2022-07-12T08:08:16;28.60;40.90
18126;DHT22;53956;52.442;13.284;2022-07-12T08:10:44;28.00;42.10
18126;DHT22;53956;52.442;13.284;2022-07-12T08:13:12;28.40;41.60
18126;DHT22;53956;52.442;13.284;2022-07-12T08:15:38;28.30;41.90
18126;DHT22;53956;52.442;13.284;2022-07-12T08:18:05;28.40;41.70
18126;DHT22;53956;52.442;13.284;2022-07-12T08:20:32;28.20;42.00
18126;DHT22;53956;52.442;13.284;2022-07-12T08:22:59;28.40;41.90
18126;DHT22;53956;52.442;13.284;2022-07-12T08:25:26;28.30;42.60
18126;DHT22;53956;52.442;13.284;2022-07-12T08:27:52;28.20;42.60
18126;DHT22;53956;52.442;13.284;2022-07-12T08:30:20;28.30;42.10
18126;DHT22;53956;52.442;13.284;2022-07-12T08:32:47;28.20;41.40
18126;DHT22;53956;52.442;13.284;2022-07-12T08:35:14;28.20;41.00
18126;DHT22;53956;52.442;13.284;2022-07-12T08:37:41;27.80;42.30
18126;DHT22;53956;52.442;13.284;2022-07-12T08:40:08;28.10;41.10
18126;DHT22;53956;52.442;13.284;2022-07-12T08:42:36;27.90;42.30
18126;DHT22;53956;52.442;13.284;2022-07-12T08:45:07;28.10;42.30
18126;DHT22;53956;52.442;13.284;2022-07-12T08:47:35;27.80;42.20
18126;DHT22;53956;52.442;13.284;2022-07-12T08:50:16;27.40;42.00
18126;DHT22;53956;52.442;13.284;2022-07-12T08:52:44;27.80;41.90
18126;DHT22;53956;52.442;13.284;2022-07-12T08:55:20;27.60;42.10
18126;DHT22;53956;52.442;13.284;2022-07-12T08:57:47;27.90;42.50
18126;DHT22;53956;52.442;13.284;2022-07-12T09:00:14;28.10;42.80
18126;DHT22;53956;52.442;13.284;2022-07-12T09:05:13;27.80;42.50
18126;DHT22;53956;52.442;13.284;2022-07-12T09:07:40;27.60;42.70
18126;DHT22;53956;52.442;13.284;2022-07-12T09:10:09;27.90;42.80
18126;DHT22;53956;52.442;13.284;2022-07-12T09:12:36;27.60;42.40
18126;DHT22;53956;52.442;13.284;2022-07-12T09:15:16;27.90;43.00
18126;DHT22;53956;52.442;13.284;2022-07-12T09:17:57;27.80;42.30
18126;DHT22;53956;52.442;13.284;2022-07-12T09:20:25;27.50;41.80
18126;DHT22;53956;52.442;13.284;2022-07-12T09:22:53;27.50;43.30
18126;DHT22;53956;52.442;13.284;2022-07-12T09:25:20;27.70;43.00
18126;DHT22;53956;52.442;13.284;2022-07-12T09:27:50;27.80;42.40
18126;DHT22;53956;52.442;13.284;2022-07-12T09:30:17;27.80;43.00
18126;DHT22;53956;52.442;13.284;2022-07-12T09:32:58;27.90;42.60
18126;DHT22;53956;52.442;13.284;2022-07-12T09:35:44;27.90;43.40
18126;DHT22;53956;52.442;13.284;2022-07-12T09:38:33;27.90;43.00
18126;DHT22;53956;52.442;13.284;2022-07-12T09:41:00;27.80;42.30
18126;DHT22;53956;52.442;13.284;2022-07-12T09:43:27;27.90;42.20
18126;DHT22;53956;52.442;13.284;2022-07-12T09:45:55;27.80;43.10
18126;DHT22;53956;52.442;13.284;2022-07-12T09:48:23;28.20;42.50
18126;DHT22;53956;52.442;13.284;2022-07-12T09:50:52;28.00;42.00
18126;DHT22;53956;52.442;13.284;2022-07-12T09:53:26;28.10;41.90
18126;DHT22;53956;52.442;13.284;2022-07-12T09:55:53;27.80;40.30
18126;DHT22;53956;52.442;13.284;2022-07-12T09:58:24;27.80;42.20
18126;DHT22;53956;52.442;13.284;2022-07-12T10:00:52;27.90;42.60
18126;DHT22;53956;52.442;13.284;2022-07-12T10:03:22;28.10;42.70
18126;DHT22;53956;52.442;13.284;2022-07-12T10:05:51;28.30;41.90
18126;DHT22;53956;52.442;13.284;2022-07-12T10:08:19;28.20;41.60
18126;DHT22;53956;52.442;13.284;2022-07-12T10:10:46;28.10;41.50
18126;DHT22;53956;52.442;13.284;2022-07-12T10:13:13;28.40;41.10
18126;DHT22;53956;52.442;13.284;2022-07-12T10:15:41;28.30;41.10
18126;DHT22;53956;52.442;13.284;2022-07-12T10:18:15;28.20;41.00
18126;DHT22;53956;52.442;13.284;2022-07-12T10:20:43;28.30;41.30
18126;DHT22;53956;52.442;13.284;2022-07-12T10:23:31;28.20;42.00
18126;DHT22;53956;52.442;13.284;2022-07-12T10:26:00;28.20;41.00
18126;DHT22;53956;52.442;13.284;2022-07-12T10:29:00;28.00;41.30
18126;DHT22;53956;52.442;13.284;2022-07-12T10:31:29;28.00;41.30
18126;DHT22;53956;52.442;13.284;2022-07-12T10:34:10;27.90;41.20
18126;DHT22;53956;52.442;13.284;2022-07-12T10:37:09;28.20;42.00
18126;DHT22;53956;52.442;13.284;2022-07-12T10:39:37;28.20;41.20
18126;DHT22;53956;52.442;13.284;2022-07-12T10:42:13;28.10;40.50
18126;DHT22;53956;52.442;13.284;2022-07-12T10:44:41;27.80;41.80
18126;DHT22;53956;52.442;13.284;2022-07-12T10:47:10;27.50;42.10
18126;DHT22;53956;52.442;13.284;2022-07-12T10:49:43;27.60;42.20
18126;DHT22;53956;52.442;13.284;2022-07-12T10:52:31;28.20;42.40
18126;DHT22;53956;52.442;13.284;2022-07-12T10:55:17;28.10;41.70
18126;DHT22;53956;52.442;13.284;2022-07-12T10:57:46;27.30;42.20
18126;DHT22;53956;52.442;13.284;2022-07-12T11:00:18;27.30;43.10
18126;DHT22;53956;52.442;13.284;2022-07-12T11:02:46;27.50;42.50
18126;DHT22;53956;52.442;13.284;2022-07-12T11:05:13;27.90;41.90
18126;DHT22;53956;52.442;13.284;2022-07-12T11:07:41;28.00;41.30
18126;DHT22;53956;52.442;13.284;2022-07-12T11:10:12;28.00;41.40
18126;DHT22;53956;52.442;13.284;2022-07-12T11:12:39;28.00;41.70
18126;DHT22;53956;52.442;13.284;2022-07-12T11:15:06;28.10;41.60
18126;DHT22;53956;52.442;13.284;2022-07-12T11:17:34;27.70;42.20
18126;DHT22;53956;52.442;13.284;2022-07-12T11:20:09;27.60;42.20
18126;DHT22;53956;52.442;13.284;2022-07-12T11:22:37;27.70;41.30
18126;DHT22;53956;52.442;13.284;2022-07-12T11:25:07;27.40;43.10
18126;DHT22;53956;52.442;13.284;2022-07-12T11:27:35;27.60;42.70
18126;DHT22;53956;52.442;13.284;2022-07-12T11:30:04;28.00;42.20
18126;DHT22;53956;52.442;13.284;2022-07-12T11:32:38;28.10;41.90
18126;DHT22;53956;52.442;13.284;2022-07-12T11:35:18;27.80;42.00
18126;DHT22;53956;52.442;13.284;2022-07-12T11:37:53;27.70;42.60
18126;DHT22;53956;52.442;13.284;2022-07-12T11:40:29;28.00;42.50
18126;DHT22;53956;52.442;13.284;2022-07-12T11:42:57;28.10;42.80
18126;DHT22;53956;52.442;13.284;2022-07-12T11:45:25;27.90;42.20
18126;DHT22;53956;52.442;13.284;2022-07-12T11:47:52;27.80;41.80
18126;DHT22;53956;52.442;13.284;2022-07-12T11:50:19;27.90;41.80
18126;DHT22;53956;52.442;13.284;2022-07-12T11:52:46;27.80;42.10
18126;DHT22;53956;52.442;13.284;2022-07-12T11:55:13;27.80;42.70
18126;DHT22;53956;52.442;13.284;2022-07-12T11:57:41;27.90;42.80
18126;DHT22;53956;52.442;13.284;2022-07-12T12:00:16;28.10;42.00
18126;DHT22;53956;52.442;13.284;2022-07-12T12:02:43;28.20;41.60
18126;DHT22;53956;52.442;13.284;2022-07-12T12:05:10;28.30;40.30
18126;DHT22;53956;52.442;13.284;2022-07-12T12:07:37;28.40;41.40
18126;DHT22;53956;52.442;13.284;2022-07-12T12:10:05;28.30;41.60
18126;DHT22;53956;52.442;13.284;2022-07-12T12:12:36;28.20;41.40
18126;DHT22;53956;52.442;13.284;2022-07-12T12:15:06;27.70;42.10
18126;DHT22;53956;52.442;13.284;2022-07-12T12:17:36;27.50;42.40
18126;DHT22;53956;52.442;13.284;2022-07-12T12:20:11;27.70;42.50
18126;DHT22;53956;52.442;13.284;2022-07-12T12:22:38;28.00;42.00
18126;DHT22;53956;52.442;13.284;2022-07-12T12:25:06;28.30;42.40
18126;DHT22;53956;52.442;13.284;2022-07-12T12:27:41;28.50;41.90
18126;DHT22;53956;52.442;13.284;2022-07-12T12:30:10;28.30;40.80
18126;DHT22;53956;52.442;13.284;2022-07-12T12:32:48;28.00;42.10
18126;DHT22;53956;52.442;13.284;2022-07-12T12:35:17;28.00;42.60
18126;DHT22;53956;52.442;13.284;2022-07-12T12:37:54;27.90;42.00
18126;DHT22;53956;52.442;13.284;2022-07-12T12:40:22;28.20;42.20
18126;DHT22;53956;52.442;13.284;2022-07-12T12:42:49;28.20;41.80
18126;DHT22;53956;52.442;13.284;2022-07-12T12:45:22;28.20;42.00
18126;DHT22;53956;52.442;13.284;2022-07-12T12:47:57;28.00;42.40
18126;DHT22;53956;52.442;13.284;2022-07-12T12:50:43;27.90;42.90
18126;DHT22;53956;52.442;13.284;2022-07-12T12:53:13;27.90;43.00
18126;DHT22;53956;52.442;13.284;2022-07-12T12:55:40;27.90;41.70
18126;DHT22;53956;52.442;13.284;2022-07-12T12:58:07;28.00;43.00
18126;DHT22;53956;52.442;13.284;2022-07-12T13:00:37;27.80;43.20
18126;DHT22;53956;52.442;13.284;2022-07-12T13:03:05;28.00;44.00
18126;DHT22;53956;52.442;13.284;2022-07-12T13:05:32;27.80;43.80
18126;DHT22;53956;52.442;13.284;2022-07-12T13:08:01;27.90;43.80
18126;DHT22;53956;52.442;13.284;2022-07-12T13:10:28;28.00;43.40
18126;DHT22;53956;52.442;13.284;2022-07-12T13:12:56;28.10;43.10
18126;DHT22;53956;52.442;13.284;2022-07-12T13:15:23;28.10;42.00
18126;DHT22;53956;52.442;13.284;2022-07-12T13:17:51;28.10;42.70
18126;DHT22;53956;52.442;13.284;2022-07-12T13:20:18;28.20;43.10
18126;DHT22;53956;52.442;13.284;2022-07-12T13:22:45;28.30;43.40
18126;DHT22;53956;52.442;13.284;2022-07-12T13:25:13;28.30;43.30
18126;DHT22;53956;52.442;13.284;2022-07-12T13:27:40;27.90;43.50
18126;DHT22;53956;52.442;13.284;2022-07-12T13:30:08;27.80;42.80
18126;DHT22;53956;52.442;13.284;2022-07-12T13:32:36;27.80;42.50
18126;DHT22;53956;52.442;13.284;2022-07-12T13:35:07;27.70;42.50
18126;DHT22;53956;52.442;13.284;2022-07-12T13:37:34;27.80;42.50
18126;DHT22;53956;52.442;13.284;2022-07-12T13:40:01;28.20;43.70
18126;DHT22;53956;52.442;13.284;2022-07-12T13:42:40;28.30;43.80
18126;DHT22;53956;52.442;13.284;2022-07-12T13:45:08;28.20;43.30
18126;DHT22;53956;52.442;13.284;2022-07-12T13:47:36;28.20;44.00
18126;DHT22;53956;52.442;13.284;2022-07-12T13:50:05;28.20;43.60
18126;DHT22;53956;52.442;13.284;2022-07-12T13:52:32;28.10;43.40
18126;DHT22;53956;52.442;13.284;2022-07-12T13:54:58;28.20;43.10
18126;DHT22;53956;52.442;13.284;2022-07-12T13:57:25;28.10;43.20
18126;DHT22;53956;52.442;13.284;2022-07-12T13:59:52;28.20;43.00
18126;DHT22;53956;52.442;13.284;2022-07-12T14:02:19;28.00;43.20
18126;DHT22;53956;52.442;13.284;2022-07-12T14:04:46;28.10;43.10
18126;DHT22;53956;52.442;13.284;2022-07-12T14:07:14;28.10;43.60
18126;DHT22;53956;52.442;13.284;2022-07-12T14:09:40;28.20;43.90
18126;DHT22;53956;52.442;13.284;2022-07-12T14:12:07;28.10;43.50
18126;DHT22;53956;52.442;13.284;2022-07-12T14:14:35;28.20;43.70
18126;DHT22;53956;52.442;13.284;2022-07-12T14:17:19;28.10;43.40
18126;DHT22;53956;52.442;13.284;2022-07-12T14:19:46;28.10;43.20
18126;DHT22;53956;52.442;13.284;2022-07-12T14:22:14;28.10;43.10
18126;DHT22;53956;52.442;13.284;2022-07-12T14:24:41;28.10;43.60
18126;DHT22;53956;52.442;13.284;2022-07-12T14:27:08;28.30;43.20
18126;DHT22;53956;52.442;13.284;2022-07-12T14:29:34;28.20;43.00
18126;DHT22;53956;52.442;13.284;2022-07-12T14:32:01;28.20;42.90
18126;DHT22;53956;52.442;13.284;2022-07-12T14:34:28;28.10;43.40
18126;DHT22;53956;52.442;13.284;2022-07-12T14:36:54;28.10;43.60
18126;DHT22;53956;52.442;13.284;2022-07-12T14:39:22;28.20;43.10
18126;DHT22;53956;52.442;13.284;2022-07-12T14:41:49;28.10;44.00
18126;DHT22;53956;52.442;13.284;2022-07-12T14:44:16;28.10;43.60
18126;DHT22;53956;52.442;13.284;2022-07-12T14:46:44;27.90;43.40
18126;DHT22;53956;52.442;13.284;2022-07-12T14:49:11;27.70;43.80
18126;DHT22;53956;52.442;13.284;2022-07-12T14:51:38;27.70;42.80
18126;DHT22;53956;52.442;13.284;2022-07-12T14:54:04;27.60;42.70
18126;DHT22;53956;52.442;13.284;2022-07-12T14:56:32;27.70;43.40
18126;DHT22;53956;52.442;13.284;2022-07-12T14:58:59;27.50;43.60
18126;DHT22;53956;52.442;13.284;2022-07-12T15:01:26;27.60;43.70
18126;DHT22;53956;52.442;13.284;2022-07-12T15:03:52;27.70;43.20
18126;DHT22;53956;52.442;13.284;2022-07-12T15:06:19;27.90;43.40
18126;DHT22;53956;52.442;13.284;2022-07-12T15:08:46;28.00;42.90
18126;DHT22;53956;52.442;13.284;2022-07-12T15:11:12;28.00;43.40
18126;DHT22;53956;52.442;13.284;2022-07-12T15:13:41;28.00;43.10
18126;DHT22;53956;52.442;13.284;2022-07-12T15:16:07;28.10;43.10
18126;DHT22;53956;52.442;13.284;2022-07-12T15:18:34;28.10;43.50
18126;DHT22;53956;52.442;13.284;2022-07-12T15:21:02;28.30;43.30
18126;DHT22;53956;52.442;13.284;2022-07-12T15:23:28;28.30;43.10
18126;DHT22;53956;52.442;13.284;2022-07-12T15:25:56;28.40;42.80